Nearby METAR Reports

 

EGOS - RAF Shawbury, Shropshire, UK
Distance from station: NE 9mi, 14km
Updated: 22/01/2018 08:50
Mostly cloudy
Mostly cloudy
 Wind from W
Wind: W 9 mph , 15 km/h
Temperature: 6°C
Wind Chill: 3°C
Dew Point: 4°C
Humidity: 87%
Barometer: 1009 hPa
Clouds: Mostly cloudy
Visibility: 6 miles , 10 km
Cloud details: Few Clouds 884 m
Mostly cloudy 1372 m
2018/01/22 08:50 EGOS 220850Z 26008KT 9999 FEW029 BKN045 06/04 Q1009 BLU NOSIG
KNUQ - Moffett Nas/Mtn, California, USA
Distance from station: N 9mi, 14km
Updated: 22/01/2018 08:56
Light rain, Overcast
Light rain, Overcast
 Wind from SE
Wind: SE 7 mph , 11 km/h
Temperature: 11°C
Dew Point: 7°C
Humidity: 77%
Barometer: 1027.4 hPa
Summary: Light rain
Clouds: Overcast
Visibility: 9 miles , 14 km
Cloud details: Overcast 1829 m
2018/01/22 08:56 KNUQ 220856Z 14006KT 9SM -RA OVC060 11/07 A3034 RMK AO2 RAB42 SLP277 P0000 60000 T01060067 58005
 
KPAO - Palo Alto, California, USA
Distance from station: NNW 14mi, 23km
Updated: 22/01/2018 04:47
NOT Current
Mostly cloudy
Mostly cloudy
 Wind from calm
Wind: Calm
Temperature: 12°C
Dew Point: 7°C
Humidity: 72%
Barometer: 1027.8 hPa
Clouds: Mostly cloudy
Visibility: 10 miles , 16 km
Cloud details: Mostly cloudy 3658 m
2018/01/22 04:47 KPAO 220447Z 00000KT 10SM BKN120 12/07 A3035 RMK LAST
KRHV - San Jose/Reid, California, USA
Distance from station: ENE 12mi, 19km
Updated: 22/01/2018 05:47
NOT Current
Mostly cloudy
Mostly cloudy
 Wind from calm
Wind: Calm
Temperature: 10°C
Dew Point: 6°C
Humidity: 76%
Barometer: 1027.4 hPa
Clouds: Mostly cloudy
Visibility: 10 miles , 16 km
Cloud details: Partly cloudy 1829 m
Mostly cloudy 4572 m
2018/01/22 05:47 KRHV 220547Z 00000KT 10SM SCT060 BKN150 10/06 A3034 RMK LAST
 
KOAK - Oakland, California, USA
Distance from station: NNW 31mi, 50km
Updated: 22/01/2018 08:53
Light rain, Overcast
Light rain, Overcast
 Wind from SE
Wind: SE 10 mph , 17 km/h
Temperature: 10°C
Wind Chill: 8°C
Dew Point: 9°C
Humidity: 94%
Barometer: 1026.8 hPa
Summary: Light rain
Clouds: Overcast
Visibility: 9 miles , 14 km
Cloud details: Overcast 732 m
2018/01/22 08:53 KOAK 220853Z 13009KT 9SM -RA OVC024 10/09 A3032 RMK AO2 SLP267 P0004 60004 T01000089 58008
KSQL - San Carlos Airpo, California, USA
Distance from station: NW 21mi, 34km
Updated: 22/01/2018 09:35
Overcast
Overcast
 Wind from SSE
Wind: SSE 9 mph , 15 km/h
Temperature: 12°C
Dew Point: 9°C
Humidity: 82%
Barometer: 1026.8 hPa
Clouds: Overcast
Visibility: 10 miles , 16 km
Cloud details: Few Clouds 914 m
Overcast 1829 m
2018/01/22 09:35 KSQL 220935Z AUTO 15008KT 10SM FEW030 OVC060 12/09 A3032 RMK AO2
 
KSFO - San Francisco, California, USA
Distance from station: NW 30mi, 49km
Updated: 22/01/2018 08:56
Light rain, Overcast
Light rain, Overcast
 Wind from S
Wind: S 9 mph , 15 km/h
Temperature: 12°C
Dew Point: 9°C
Humidity: 82%
Barometer: 1026.8 hPa
Summary: Light rain
Clouds: Overcast
Visibility: 9 miles , 14 km
Cloud details: Partly cloudy 762 m
Mostly cloudy 1829 m
Overcast 2134 m
2018/01/22 08:56 KSFO 220856Z 18008KT 9SM -RA SCT025 BKN060 OVC070 12/09 A3032 RMK AO2 SLP265 P0001 60001 T01220089 58007
KE16 - San Martin, California, USA
Distance from station: ESE 27mi, 43km
Updated: 22/01/2018 09:30
Overcast
Overcast
 Wind from S
Wind: S 3 mph , 6 km/h
Temperature: 8°C
Dew Point: 5°C
Humidity: 82%
Barometer: 1028.8 hPa
Clouds: Overcast
Visibility: 10 miles , 16 km
Cloud details: Mostly cloudy 1036 m
Overcast 2134 m
2018/01/22 09:30 KE16 220930Z AUTO 18003KT 10SM BKN034 OVC070 08/05 A3038 RMK AO2
 
KWVI - Watsonville, California, USA
Distance from station: SSE 27mi, 44km
Updated: 22/01/2018 08:53
Overcast
Overcast
 Wind from calm
Wind: Calm
Temperature: 8°C
Dew Point: 6°C
Humidity: 87%
Barometer: 1028.4 hPa
Clouds: Overcast
Visibility: 9 miles , 14 km
Cloud details: Mostly cloudy 1097 m
Overcast 2286 m
2018/01/22 08:53 KWVI 220853Z AUTO 00000KT 9SM BKN036 OVC075 08/06 A3037 RMK AO2 SLP284 T00830061 58003
KHAF - Half Moon Bay, California, USA
Distance from station: WNW 31mi, 50km
Updated: 22/01/2018 09:35

 
2018/01/22 09:35 KHAF 220935Z AUTO RMK AO2 PWINO
 
KHWD - Hayward, California, USA
Distance from station: N 28mi, 44km
Updated: 22/01/2018 08:54
Light rain, Overcast
Light rain, Overcast
 Wind from SSE
Wind: SSE 9 mph , 15 km/h
Temperature: 11°C
Dew Point: 6°C
Humidity: 72%
Barometer: 1027.1 hPa
Summary: Light rain
Clouds: Overcast
Visibility: 9 miles , 14 km
Cloud details: Mostly cloudy 823 m
Overcast 1036 m
2018/01/22 08:54 KHWD 220854Z AUTO 15008KT 9SM -RA BKN027 OVC034 11/06 A3033 RMK AO2 RAB0757 SLP279 P0000 60000 T01060061 58006
KLVK - Livermore, California, USA
Distance from station: NNE 31mi, 51km
Updated: 22/01/2018 08:53
Overcast
Overcast
 Wind from calm
Wind: Calm
Temperature: 9°C
Dew Point: 7°C
Humidity: 87%
Barometer: 1026.8 hPa
Clouds: Overcast
Visibility: 10 miles , 16 km
Cloud details: Few Clouds 884 m
Partly cloudy 1311 m
Overcast 1676 m
2018/01/22 08:53 KLVK 220853Z AUTO 00000KT 10SM FEW029 SCT043 OVC055 09/07 A3032 RMK AO2 RAE12 SLP268 P0000 60000 T00940067 58006